Terminal Aerodrome Forecast
Issued by NWS

Home | Current Version | Previous Version | Text Only | Print | Product List | Glossary Off
Versions: 1 2 3 4 5 6 7 8 9 10 11 12 13 14

891
FTUS43 KMPX 030520
TAFRWF
TAF
KRWF 030520Z 0306/0406 28004KT P6SM OVC022
     FM031500 17006KT P6SM BKN028 OVC035
     FM031800 16009KT P6SM BKN035
     FM040100 16010KT P6SM OVC030 PROB30 0401/0406 4SM -SN OVC018=

USA.gov is the U.S. government's official web portal to all federal, state and local government web resources and services.